Time;durP1;ratioP1;P1;durP2;ratioP2;P2;SDS_P1;SDS_P2;PMS_P1;PMS_P2;Temp;Humidity;BMP_temperature;BMP_pressure;BME280_temperature;BME280_humidity;BME280_pressure;Samples;Min_cycle;Max_cycle;Signal;HPM_P1;HPM_P2
2022/10/13 00:00:21;;;;;;;19.10;12.40;;;21.50;45.60;;;;;;5095453;28;20442;-81
2022/10/13 00:02:49;;;;;;;18.00;12.30;;;21.50;45.40;;;;;;5088163;28;20477;-80
2022/10/13 00:05:19;;;;;;;16.60;11.83;;;21.50;45.60;;;;;;5089264;28;20455;-81
2022/10/13 00:07:47;;;;;;;17.60;12.30;;;21.50;45.60;;;;;;5093848;28;20449;-80
2022/10/13 00:10:15;;;;;;;15.57;10.90;;;21.50;45.60;;;;;;5093660;28;20447;-80
2022/10/13 00:12:43;;;;;;;17.70;12.10;;;21.40;45.60;;;;;;5094290;28;20472;-81
2022/10/13 00:15:12;;;;;;;16.20;11.77;;;21.40;45.90;;;;;;5093778;28;20449;-81
2022/10/13 00:17:40;;;;;;;14.67;10.47;;;21.40;45.80;;;;;;5095771;28;20453;-80
2022/10/13 00:20:09;;;;;;;14.77;10.83;;;21.50;45.80;;;;;;5115679;28;20424;-81
2022/10/13 00:22:38;;;;;;;16.27;11.50;;;21.50;45.90;;;;;;5111120;28;20474;-80
2022/10/13 00:25:07;;;;;;;15.40;10.43;;;21.40;45.90;;;;;;5095677;28;20428;-80
2022/10/13 00:27:35;;;;;;;14.53;9.30;;;21.50;46.00;;;;;;5093812;28;20437;-81
2022/10/13 00:30:04;;;;;;;15.97;9.50;;;21.50;45.90;;;;;;5094463;28;20448;-81
2022/10/13 00:32:32;;;;;;;15.73;10.50;;;21.40;45.90;;;;;;5093942;28;20461;-80
2022/10/13 00:35:00;;;;;;;14.03;9.40;;;21.40;46.00;;;;;;5091739;28;20437;-80
2022/10/13 00:37:28;;;;;;;14.63;9.53;;;21.40;45.90;;;;;;5096053;28;20451;-80
2022/10/13 00:39:57;;;;;;;17.83;9.90;;;21.40;46.20;;;;;;5088523;28;20452;-80
2022/10/13 00:42:26;;;;;;;13.13;9.10;;;21.40;46.00;;;;;;5095575;28;20468;-81
2022/10/13 00:44:59;;;;;;;13.00;9.10;;;21.40;46.10;;;;;;5075893;28;20484;-81
2022/10/13 00:47:28;;;;;;;11.27;8.63;;;21.40;46.20;;;;;;5091900;28;20445;-81
2022/10/13 00:49:56;;;;;;;13.63;8.63;;;21.40;46.20;;;;;;5093960;28;20452;-80
2022/10/13 00:52:24;;;;;;;13.37;9.23;;;21.40;46.20;;;;;;5095632;28;20836;-80
2022/10/13 00:54:52;;;;;;;12.90;8.40;;;21.40;46.20;;;;;;5092308;28;20694;-80
2022/10/13 00:57:21;;;;;;;11.80;8.40;;;21.40;46.40;;;;;;5092290;28;20445;-80
2022/10/13 00:59:49;;;;;;;11.20;8.57;;;21.40;46.30;;;;;;5090380;28;20465;-81
2022/10/13 01:02:17;;;;;;;10.57;7.90;;;21.40;46.20;;;;;;5094322;28;20472;-80
2022/10/13 01:04:47;;;;;;;10.73;8.07;;;21.30;46.20;;;;;;5087916;28;20464;-80
2022/10/13 01:07:16;;;;;;;10.20;7.80;;;21.30;46.30;;;;;;5094011;28;20453;-80
2022/10/13 01:09:46;;;;;;;10.60;7.33;;;21.30;46.40;;;;;;5096373;28;20444;-80
2022/10/13 01:12:22;;;;;;;9.23;7.20;;;21.30;46.40;;;;;;5095765;28;20475;-81
2022/10/13 01:14:54;;;;;;;10.30;7.70;;;21.30;46.40;;;;;;5096648;28;20437;-81
2022/10/13 01:17:28;;;;;;;10.10;7.30;;;21.30;46.40;;;;;;5093597;28;20448;-81
2022/10/13 01:20:28;;;;;;;8.40;6.90;;;21.20;46.50;;;;;;5097828;28;20423;-81
2022/10/13 01:23:05;;;;;;;8.10;6.73;;;21.20;46.40;;;;;;5098502;28;20526;-82
2022/10/13 01:25:43;;;;;;;11.40;6.97;;;21.20;46.50;;;;;;5096634;28;20455;-81
2022/10/13 01:28:32;;;;;;;9.97;7.20;;;21.30;46.70;;;;;;5098208;28;20415;-81
2022/10/13 01:31:04;;;;;;;11.33;7.23;;;21.30;46.70;;;;;;5086785;28;20475;-81
2022/10/13 01:33:35;;;;;;;8.27;6.63;;;21.20;46.60;;;;;;5098569;28;20435;-82
2022/10/13 01:36:07;;;;;;;9.80;6.97;;;21.20;46.70;;;;;;5095698;28;20437;-82
2022/10/13 01:38:37;;;;;;;8.20;6.70;;;21.20;46.80;;;;;;5095591;28;20449;-83
2022/10/13 01:41:08;;;;;;;12.00;7.00;;;21.20;46.80;;;;;;5097552;28;20425;-82
2022/10/13 01:43:38;;;;;;;12.00;7.43;;;21.10;46.70;;;;;;5098100;28;20460;-81
2022/10/13 01:46:09;;;;;;;7.97;6.80;;;21.10;46.70;;;;;;5101840;28;20437;-82
2022/10/13 01:48:38;;;;;;;7.23;6.10;;;21.10;46.80;;;;;;5100943;28;20453;-81
2022/10/13 01:51:07;;;;;;;8.53;6.40;;;21.10;46.80;;;;;;5101792;28;20830;-81
2022/10/13 01:53:35;;;;;;;8.13;6.10;;;21.10;46.90;;;;;;5099096;28;20449;-82
2022/10/13 01:56:03;;;;;;;9.90;6.90;;;21.10;46.90;;;;;;5102184;28;20440;-80
2022/10/13 01:58:33;;;;;;;7.90;6.70;;;21.00;46.80;;;;;;5100097;28;20452;-82
2022/10/13 02:01:07;;;;;;;8.93;6.63;;;21.10;47.00;;;;;;5101558;28;20440;-82
2022/10/13 02:03:41;;;;;;;9.73;6.20;;;21.00;46.90;;;;;;5097024;28;20468;-81
2022/10/13 02:06:15;;;;;;;9.70;6.17;;;21.00;46.80;;;;;;5101907;28;20443;-82
2022/10/13 02:08:45;;;;;;;10.10;6.53;;;21.00;47.00;;;;;;5096708;28;20431;-81
2022/10/13 02:11:14;;;;;;;9.47;6.43;;;21.00;47.00;;;;;;5100910;28;20513;-82
2022/10/13 02:13:45;;;;;;;8.30;5.90;;;21.00;47.00;;;;;;5100513;28;20423;-82
2022/10/13 02:16:13;;;;;;;9.57;6.30;;;21.00;47.20;;;;;;5100301;28;20437;-81
2022/10/13 02:18:42;;;;;;;7.20;5.70;;;21.00;47.10;;;;;;5095931;28;20459;-82
2022/10/13 02:21:10;;;;;;;5.90;5.03;;;21.00;47.00;;;;;;5100996;28;20459;-82
2022/10/13 02:23:38;;;;;;;8.83;6.00;;;21.00;47.00;;;;;;5099611;28;20456;-81
2022/10/13 02:26:06;;;;;;;7.60;5.63;;;21.00;47.00;;;;;;5099795;28;20459;-81
2022/10/13 02:28:36;;;;;;;7.07;5.67;;;21.00;47.00;;;;;;5099601;28;20453;-81
2022/10/13 02:31:05;;;;;;;9.50;5.80;;;20.90;47.00;;;;;;5101573;28;20431;-82
2022/10/13 02:33:34;;;;;;;7.20;6.17;;;20.90;47.10;;;;;;5097032;28;20452;-81
2022/10/13 02:36:03;;;;;;;7.73;6.30;;;20.90;47.00;;;;;;5096011;28;20448;-81
2022/10/13 02:38:31;;;;;;;9.17;6.10;;;20.90;47.20;;;;;;5088512;28;20436;-81
2022/10/13 02:41:00;;;;;;;8.67;6.20;;;20.90;47.10;;;;;;5098212;28;20584;-82
2022/10/13 02:43:28;;;;;;;6.63;5.43;;;21.00;47.10;;;;;;5097976;28;20445;-82
2022/10/13 02:45:56;;;;;;;9.40;6.43;;;20.90;47.10;;;;;;5097939;28;20559;-81
2022/10/13 02:48:24;;;;;;;8.40;5.70;;;20.90;47.20;;;;;;5098010;28;20444;-82
2022/10/13 02:50:52;;;;;;;8.00;5.20;;;20.90;47.00;;;;;;5097910;28;20451;-82
2022/10/13 02:53:21;;;;;;;8.90;5.77;;;20.90;47.20;;;;;;5079475;28;20456;-82
2022/10/13 02:55:49;;;;;;;8.83;5.50;;;20.80;47.10;;;;;;5090408;28;20455;-82
2022/10/13 02:58:17;;;;;;;8.30;5.37;;;20.90;47.20;;;;;;5093090;28;20453;-82
2022/10/13 03:00:46;;;;;;;6.67;5.30;;;20.90;47.10;;;;;;5095806;28;20467;-81
2022/10/13 03:03:14;;;;;;;7.43;5.13;;;20.80;47.10;;;;;;5095261;28;20440;-82
2022/10/13 03:05:42;;;;;;;6.33;4.80;;;20.80;47.30;;;;;;5098054;28;20446;-81
2022/10/13 03:08:10;;;;;;;9.67;5.87;;;20.80;47.20;;;;;;5092078;28;20441;-81
2022/10/13 03:10:40;;;;;;;7.63;5.80;;;20.80;47.30;;;;;;5097922;28;20445;-82
2022/10/13 03:13:07;;;;;;;9.83;5.50;;;20.80;47.30;;;;;;5078703;28;20477;-82
2022/10/13 03:15:36;;;;;;;8.37;5.70;;;20.80;47.40;;;;;;5092835;28;20451;-82
2022/10/13 03:18:04;;;;;;;5.97;4.97;;;20.80;47.30;;;;;;5091408;28;20441;-82
2022/10/13 03:20:32;;;;;;;6.00;5.20;;;20.80;47.50;;;;;;5097003;28;20446;-82
2022/10/13 03:23:00;;;;;;;7.00;5.10;;;20.80;47.30;;;;;;5077801;28;20461;-82
2022/10/13 03:25:28;;;;;;;6.80;4.70;;;20.70;47.30;;;;;;5091521;28;20971;-81
2022/10/13 03:27:57;;;;;;;7.20;5.50;;;20.70;47.30;;;;;;5094386;28;20441;-81
2022/10/13 03:30:25;;;;;;;6.40;5.67;;;20.70;47.40;;;;;;5097307;28;20444;-81
2022/10/13 03:32:53;;;;;;;6.83;5.07;;;20.70;47.50;;;;;;5098471;28;20483;-81
2022/10/13 03:35:21;;;;;;;6.20;5.30;;;20.70;47.50;;;;;;5099417;28;20428;-81
2022/10/13 03:37:49;;;;;;;7.63;5.10;;;20.70;47.40;;;;;;5096585;28;20448;-82
2022/10/13 03:40:17;;;;;;;7.60;5.20;;;20.70;47.50;;;;;;5097904;28;20425;-81
2022/10/13 03:42:45;;;;;;;8.10;4.73;;;20.70;47.50;;;;;;5096552;28;20477;-81
2022/10/13 03:45:15;;;;;;;6.40;4.60;;;20.60;47.40;;;;;;5095189;28;20461;-82
2022/10/13 03:47:43;;;;;;;6.90;4.90;;;20.60;47.50;;;;;;5099224;28;20429;-81
2022/10/13 03:50:10;;;;;;;5.63;4.83;;;20.60;47.60;;;;;;5096202;28;20457;-81
2022/10/13 03:52:38;;;;;;;5.17;4.67;;;20.60;47.50;;;;;;5098194;28;20460;-80
2022/10/13 03:55:07;;;;;;;5.47;4.97;;;20.60;47.60;;;;;;5088531;28;20475;-80
2022/10/13 03:57:35;;;;;;;6.97;5.13;;;20.60;47.50;;;;;;5092861;28;20448;-81
2022/10/13 04:00:09;;;;;;;7.80;5.37;;;20.60;47.50;;;;;;5097640;28;20416;-82
2022/10/13 04:02:38;;;;;;;5.50;4.73;;;20.60;47.50;;;;;;5096495;28;20495;-81
2022/10/13 04:05:07;;;;;;;6.80;4.53;;;20.60;47.60;;;;;;5097666;28;20463;-80
2022/10/13 04:07:35;;;;;;;5.20;4.50;;;20.60;47.70;;;;;;5081454;28;20449;-81
2022/10/13 04:10:03;;;;;;;6.50;4.60;;;20.60;47.70;;;;;;5097226;28;20852;-82
2022/10/13 04:12:36;;;;;;;6.13;4.70;;;20.60;47.60;;;;;;5092079;28;20474;-81
2022/10/13 04:15:06;;;;;;;9.67;4.40;;;20.50;47.70;;;;;;5093869;28;20459;-81
2022/10/13 04:17:33;;;;;;;6.60;5.10;;;20.60;47.90;;;;;;5097861;28;20453;-82
2022/10/13 04:20:04;;;;;;;5.27;4.73;;;20.50;47.70;;;;;;5099406;28;20444;-82
2022/10/13 04:22:32;;;;;;;5.97;4.90;;;20.50;47.70;;;;;;5093973;28;20477;-82
2022/10/13 04:25:00;;;;;;;5.53;4.47;;;20.50;47.90;;;;;;5099173;28;20464;-82
2022/10/13 04:27:28;;;;;;;4.70;4.20;;;20.50;47.80;;;;;;5097207;28;20445;-83
2022/10/13 04:29:56;;;;;;;4.10;3.70;;;20.50;47.70;;;;;;5098580;28;20437;-82
2022/10/13 04:32:25;;;;;;;5.43;4.57;;;20.50;47.90;;;;;;5094022;28;20472;-82
2022/10/13 04:34:52;;;;;;;4.83;4.30;;;20.50;47.90;;;;;;5098401;28;20456;-81
2022/10/13 04:37:22;;;;;;;5.93;4.13;;;20.50;48.00;;;;;;5099129;28;20970;-81
2022/10/13 04:39:49;;;;;;;6.40;4.63;;;20.50;47.90;;;;;;5096648;28;20449;-81
2022/10/13 04:42:18;;;;;;;5.53;4.47;;;20.50;48.00;;;;;;5094001;28;20521;-81
2022/10/13 04:44:46;;;;;;;5.57;4.63;;;20.50;48.00;;;;;;5096019;28;20565;-82
2022/10/13 04:47:14;;;;;;;5.63;4.70;;;20.50;48.10;;;;;;5097508;28;20441;-81
2022/10/13 04:49:41;;;;;;;5.40;4.60;;;20.50;48.00;;;;;;5097399;28;20433;-82
2022/10/13 04:52:09;;;;;;;5.90;4.40;;;20.50;48.10;;;;;;5098510;28;20464;-81
2022/10/13 04:54:39;;;;;;;4.70;4.13;;;20.50;48.20;;;;;;5095507;28;20448;-81
2022/10/13 04:57:07;;;;;;;5.77;4.40;;;20.40;48.00;;;;;;5098134;28;20428;-82
2022/10/13 04:59:35;;;;;;;5.60;4.23;;;20.40;48.10;;;;;;5091550;28;20456;-82
2022/10/13 05:02:03;;;;;;;4.80;4.07;;;20.40;48.10;;;;;;5098622;28;20487;-81
2022/10/13 05:04:31;;;;;;;5.50;4.17;;;20.40;48.00;;;;;;5096671;28;20459;-82
2022/10/13 05:06:59;;;;;;;7.90;3.80;;;20.40;48.10;;;;;;5094344;28;20446;-82
2022/10/13 05:09:45;;;;;;;6.30;4.83;;;20.40;48.10;;;;;;5099535;28;20441;-83
2022/10/13 05:12:13;;;;;;;4.43;4.03;;;20.40;48.20;;;;;;5096781;28;20472;-82
2022/10/13 05:14:41;;;;;;;5.30;4.13;;;20.40;48.20;;;;;;5097773;28;20452;-83
2022/10/13 05:17:09;;;;;;;5.10;4.00;;;20.40;48.10;;;;;;5096561;28;20452;-82
2022/10/13 05:19:36;;;;;;;5.37;4.10;;;20.40;48.10;;;;;;5103495;28;20425;-82
2022/10/13 05:22:04;;;;;;;5.83;4.13;;;20.40;48.80;;;;;;5101510;28;20476;-83
2022/10/13 05:24:36;;;;;;;6.73;4.30;;;20.40;48.20;;;;;;5102731;28;20474;-82
2022/10/13 05:27:06;;;;;;;4.90;3.93;;;20.40;48.20;;;;;;5097603;28;20479;-82
2022/10/13 05:29:33;;;;;;;6.50;4.43;;;20.40;48.20;;;;;;5102953;28;20432;-83
2022/10/13 05:32:01;;;;;;;4.23;3.87;;;20.30;48.10;;;;;;5085130;28;20473;-82
2022/10/13 05:34:29;;;;;;;6.00;4.50;;;20.30;48.30;;;;;;5099770;28;20433;-82
2022/10/13 05:36:58;;;;;;;6.03;4.53;;;20.30;48.30;;;;;;5100945;28;20441;-82
2022/10/13 05:39:26;;;;;;;6.37;4.40;;;20.30;48.20;;;;;;5100639;28;20453;-83
2022/10/13 05:41:54;;;;;;;4.60;4.00;;;20.30;48.20;;;;;;5101694;28;20472;-82
2022/10/13 05:44:23;;;;;;;5.57;4.50;;;20.30;48.30;;;;;;5085560;28;20444;-80
2022/10/13 05:46:51;;;;;;;4.73;4.23;;;20.30;48.40;;;;;;5098239;28;20476;-82
2022/10/13 05:49:20;;;;;;;5.03;4.27;;;20.30;48.30;;;;;;5091824;28;20452;-82
2022/10/13 05:51:50;;;;;;;4.90;4.27;;;20.30;48.40;;;;;;5099844;28;20460;-82
2022/10/13 05:54:20;;;;;;;5.10;4.00;;;20.30;48.40;;;;;;5097328;28;20452;-82
2022/10/13 05:56:49;;;;;;;4.77;3.90;;;20.30;48.40;;;;;;5100701;28;20444;-80
2022/10/13 05:59:18;;;;;;;4.43;4.03;;;20.30;48.40;;;;;;5096126;28;20450;-81
2022/10/13 06:01:55;;;;;;;4.40;3.73;;;20.30;48.40;;;;;;5100457;28;20467;-82
2022/10/13 06:04:24;;;;;;;4.80;3.93;;;20.30;48.40;;;;;;5092584;28;20445;-81
2022/10/13 06:06:52;;;;;;;6.80;4.37;;;20.30;48.40;;;;;;5097814;28;20495;-81
2022/10/13 06:09:21;;;;;;;4.53;3.47;;;20.30;48.40;;;;;;5099392;28;20444;-80
2022/10/13 06:11:49;;;;;;;5.77;4.30;;;20.30;48.40;;;;;;5099379;28;20476;-81
2022/10/13 06:14:16;;;;;;;4.13;3.77;;;20.30;48.40;;;;;;5100286;28;20958;-80
2022/10/13 06:16:44;;;;;;;5.40;4.30;;;20.30;48.40;;;;;;5097529;28;20436;-80
2022/10/13 06:19:14;;;;;;;4.23;3.60;;;20.30;48.50;;;;;;5110227;28;20444;-80
2022/10/13 06:21:42;;;;;;;7.00;4.47;;;20.30;48.40;;;;;;5112500;28;20972;-80
2022/10/13 06:24:10;;;;;;;5.43;3.80;;;20.30;48.40;;;;;;5096738;28;20437;-81
2022/10/13 06:26:38;;;;;;;4.97;4.03;;;20.40;48.50;;;;;;5098714;28;20468;-80
2022/10/13 06:29:06;;;;;;;4.27;3.87;;;20.30;48.40;;;;;;5079169;28;20434;-81
2022/10/13 06:31:34;;;;;;;6.93;4.40;;;20.30;48.40;;;;;;5093388;28;20827;-81
2022/10/13 06:34:02;;;;;;;4.87;4.30;;;20.30;48.50;;;;;;5082019;28;20484;-82
2022/10/13 06:36:31;;;;;;;5.20;4.10;;;20.30;48.40;;;;;;5100977;28;20423;-81
2022/10/13 06:38:59;;;;;;;5.17;3.97;;;20.40;48.50;;;;;;5097848;28;20457;-81
2022/10/13 06:41:27;;;;;;;4.67;3.77;;;20.40;48.40;;;;;;5096366;28;20472;-82
2022/10/13 06:43:55;;;;;;;4.90;4.27;;;20.30;48.40;;;;;;5099553;28;20444;-82
2022/10/13 06:46:24;;;;;;;4.90;3.87;;;20.40;48.50;;;;;;5096880;28;20491;-82
2022/10/13 06:48:51;;;;;;;5.00;3.97;;;20.40;48.40;;;;;;5101063;28;20448;-82
2022/10/13 06:51:20;;;;;;;6.80;4.80;;;20.40;48.30;;;;;;5101265;28;20476;-80
2022/10/13 06:53:49;;;;;;;4.60;3.93;;;20.30;48.40;;;;;;5111703;28;20441;-81
2022/10/13 06:56:17;;;;;;;5.97;4.03;;;20.40;48.40;;;;;;5107704;28;20449;-81
2022/10/13 06:58:47;;;;;;;5.17;4.00;;;20.40;48.40;;;;;;5111100;28;20453;-81
2022/10/13 07:01:15;;;;;;;4.30;3.90;;;20.40;48.40;;;;;;5106372;28;20535;-80
2022/10/13 07:03:43;;;;;;;6.07;4.27;;;20.40;48.50;;;;;;5103719;28;20449;-80
2022/10/13 07:06:11;;;;;;;5.70;3.83;;;20.40;48.40;;;;;;5104768;28;20441;-80
2022/10/13 07:08:39;;;;;;;4.03;3.70;;;20.40;48.40;;;;;;5110449;28;20433;-80
2022/10/13 07:11:11;;;;;;;4.00;3.60;;;20.40;48.40;;;;;;5108350;28;20464;-79
2022/10/13 07:13:43;;;;;;;5.10;3.80;;;20.40;48.40;;;;;;5105125;28;20437;-79
2022/10/13 07:16:14;;;;;;;5.17;4.00;;;20.50;48.50;;;;;;5110682;28;20468;-81
2022/10/13 07:18:41;;;;;;;5.17;3.40;;;20.50;48.40;;;;;;5120612;28;20436;-80
2022/10/13 07:21:10;;;;;;;4.33;3.80;;;20.50;48.30;;;;;;5111915;28;20467;-80
2022/10/13 07:23:37;;;;;;;4.20;3.80;;;20.50;48.30;;;;;;5111994;28;20423;-80
2022/10/13 07:26:09;;;;;;;4.57;3.80;;;20.50;48.30;;;;;;5109931;28;20428;-80
2022/10/13 07:28:37;;;;;;;5.63;3.97;;;20.60;48.40;;;;;;5122944;28;20437;-80
2022/10/13 07:31:10;;;;;;;4.67;4.27;;;20.60;48.30;;;;;;5106300;28;20468;-80
2022/10/13 07:33:38;;;;;;;4.30;3.90;;;20.50;48.30;;;;;;5104122;28;20427;-79
2022/10/13 07:36:07;;;;;;;6.90;4.57;;;20.60;48.40;;;;;;5106104;28;20453;-79
2022/10/13 07:38:35;;;;;;;4.60;4.20;;;20.60;48.50;;;;;;5104396;28;20395;-80
2022/10/13 07:41:04;;;;;;;8.80;4.17;;;20.60;48.40;;;;;;5107174;28;20439;-79
2022/10/13 07:43:34;;;;;;;5.67;4.13;;;20.60;48.40;;;;;;5094874;28;20567;-79
2022/10/13 07:46:03;;;;;;;4.50;4.10;;;20.60;48.40;;;;;;5092033;28;20440;-79
2022/10/13 07:48:31;;;;;;;4.20;3.80;;;20.60;48.50;;;;;;5091025;28;20473;-80
2022/10/13 07:51:01;;;;;;;5.20;3.87;;;20.60;48.20;;;;;;5100249;28;20422;-81
2022/10/13 07:53:29;;;;;;;7.03;3.80;;;20.70;48.40;;;;;;5110017;28;20451;-81
2022/10/13 07:56:00;;;;;;;4.40;4.00;;;20.60;48.30;;;;;;5110509;28;20462;-81
2022/10/13 07:58:28;;;;;;;5.90;3.80;;;20.70;48.40;;;;;;5110377;28;20437;-81
2022/10/13 08:00:58;;;;;;;4.10;3.80;;;20.70;48.40;;;;;;5110210;28;20472;-81
2022/10/13 08:03:26;;;;;;;9.23;4.40;;;20.70;48.30;;;;;;5111244;28;20512;-81
2022/10/13 08:05:55;;;;;;;7.93;4.13;;;20.80;48.20;;;;;;5109961;28;20458;-82
2022/10/13 08:08:22;;;;;;;4.53;4.10;;;20.80;48.20;;;;;;5109911;28;20464;-81
2022/10/13 08:10:51;;;;;;;9.67;4.60;;;20.80;48.20;;;;;;5109219;28;20520;-81
2022/10/13 08:13:18;;;;;;;4.43;4.03;;;20.90;48.10;;;;;;5109548;28;20483;-82
2022/10/13 08:15:47;;;;;;;5.90;4.40;;;20.90;47.90;;;;;;5108754;28;20445;-80
2022/10/13 08:18:16;;;;;;;6.00;4.20;;;20.90;48.00;;;;;;5108750;28;20432;-81
2022/10/13 08:20:44;;;;;;;5.43;4.20;;;21.00;48.10;;;;;;5109180;28;20436;-81
2022/10/13 08:23:13;;;;;;;4.83;4.17;;;21.00;48.10;;;;;;5108358;28;20445;-80
2022/10/13 08:25:41;;;;;;;5.07;4.10;;;21.00;48.00;;;;;;5109234;28;20441;-82
2022/10/13 08:28:15;;;;;;;4.00;3.60;;;21.00;48.10;;;;;;5108750;28;20465;-82
2022/10/13 08:30:43;;;;;;;4.40;4.00;;;21.00;48.00;;;;;;5108992;28;20444;-80
2022/10/13 08:33:12;;;;;;;4.47;4.00;;;21.00;48.00;;;;;;5108199;28;20469;-81
2022/10/13 08:35:42;;;;;;;4.50;4.10;;;21.10;48.20;;;;;;5109110;28;20448;-83
2022/10/13 08:38:10;;;;;;;7.50;4.53;;;21.10;48.00;;;;;;5108897;28;20448;-82
2022/10/13 08:40:38;;;;;;;6.77;4.00;;;21.20;48.10;;;;;;5108657;28;20415;-82
2022/10/13 08:43:07;;;;;;;8.20;4.17;;;21.20;48.10;;;;;;5109148;28;20546;-82
2022/10/13 08:45:34;;;;;;;4.63;3.83;;;21.20;48.00;;;;;;5109145;28;20494;-81
2022/10/13 08:48:11;;;;;;;4.60;4.00;;;21.20;48.00;;;;;;5108604;28;20475;-81
2022/10/13 08:50:42;;;;;;;6.67;3.70;;;21.20;48.00;;;;;;5107581;28;20436;-84
2022/10/13 08:53:12;;;;;;;4.30;3.90;;;21.30;47.90;;;;;;5106843;28;20456;-80
2022/10/13 08:55:41;;;;;;;6.47;4.60;;;21.30;48.00;;;;;;5106313;28;20455;-81
2022/10/13 08:58:12;;;;;;;8.90;4.37;;;21.30;47.90;;;;;;5105999;28;20494;-82
2022/10/13 09:00:41;;;;;;;5.00;4.10;;;21.40;47.80;;;;;;5108782;28;20459;-82
2022/10/13 09:03:19;;;;;;;4.47;4.07;;;21.50;47.80;;;;;;5107642;28;20530;-82
2022/10/13 09:05:56;;;;;;;7.07;4.87;;;21.50;47.70;;;;;;5109061;28;20534;-81
2022/10/13 09:08:24;;;;;;;6.10;4.67;;;21.60;47.70;;;;;;5108335;28;20499;-78
2022/10/13 09:10:52;;;;;;;6.37;4.60;;;21.60;47.60;;;;;;5107395;28;20429;-82
2022/10/13 09:13:21;;;;;;;5.60;4.63;;;21.70;47.40;;;;;;5106828;28;20443;-81
2022/10/13 09:15:50;;;;;;;8.90;4.40;;;21.70;47.30;;;;;;5108299;28;20463;-81
2022/10/13 09:18:18;;;;;;;6.03;4.20;;;21.80;47.40;;;;;;5108099;28;20444;-82
2022/10/13 09:20:47;;;;;;;5.57;4.60;;;21.80;47.20;;;;;;5109398;28;20441;-82
2022/10/13 09:23:20;;;;;;;5.53;4.90;;;21.80;47.40;;;;;;5108156;28;20440;-79
2022/10/13 09:25:49;;;;;;;8.13;4.40;;;21.80;47.40;;;;;;5109736;28;20476;-82
2022/10/13 09:28:19;;;;;;;5.63;4.77;;;21.80;47.40;;;;;;5108954;28;20474;-81
2022/10/13 09:30:48;;;;;;;5.93;4.40;;;21.80;47.40;;;;;;5108241;28;20451;-84
2022/10/13 09:33:19;;;;;;;5.83;4.50;;;21.90;47.30;;;;;;5109156;28;20433;-82
2022/10/13 09:35:48;;;;;;;6.67;4.73;;;21.90;47.40;;;;;;5108299;28;20449;-82
2022/10/13 09:38:19;;;;;;;5.30;4.80;;;22.00;47.30;;;;;;5109384;28;20447;-83
2022/10/13 09:41:00;;;;;;;11.17;4.90;;;22.20;47.40;;;;;;5108027;28;20448;-83
2022/10/13 09:43:29;;;;;;;6.27;5.00;;;22.60;47.00;;;;;;5110449;28;20445;-81
2022/10/13 09:45:58;;;;;;;8.10;5.40;;;22.90;46.90;;;;;;5110191;28;20445;-83
2022/10/13 09:48:27;;;;;;;4.80;4.30;;;23.10;46.50;;;;;;5109812;28;20443;-82
2022/10/13 09:50:56;;;;;;;8.17;5.27;;;23.30;46.00;;;;;;5109594;28;20455;-82
2022/10/13 09:53:27;;;;;;;6.40;5.10;;;23.50;46.00;;;;;;5109805;28;20416;-83
2022/10/13 09:56:18;;;;;;;8.13;4.97;;;23.70;45.70;;;;;;5109501;28;20426;-84
2022/10/13 09:58:49;;;;;;;8.63;5.07;;;23.80;45.80;;;;;;5104782;28;20408;-77
2022/10/13 10:01:21;;;;;;;8.07;5.13;;;23.80;45.70;;;;;;5104854;28;20449;-79
2022/10/13 10:03:49;;;;;;;6.80;4.97;;;23.70;45.60;;;;;;5104612;28;20517;-80
2022/10/13 10:06:17;;;;;;;7.13;5.30;;;23.70;45.70;;;;;;5104807;28;20440;-79
2022/10/13 10:08:51;;;;;;;7.80;4.90;;;23.60;45.70;;;;;;5107464;28;20468;-81
2022/10/13 10:11:39;;;;;;;10.40;5.03;;;23.50;45.90;;;;;;5107618;28;20442;-81
2022/10/13 10:14:14;;;;;;;5.77;4.90;;;23.30;46.00;;;;;;5109841;28;20452;-80
2022/10/13 10:16:44;;;;;;;5.80;5.13;;;23.20;46.20;;;;;;5105806;28;20440;-78
2022/10/13 10:19:16;;;;;;;13.63;5.67;;;23.10;46.30;;;;;;5106911;28;20451;-80
2022/10/13 10:21:45;;;;;;;8.70;5.47;;;23.10;46.40;;;;;;5108317;28;20460;-80
2022/10/13 10:24:18;;;;;;;8.07;5.40;;;23.00;46.60;;;;;;5107909;28;20455;-80
2022/10/13 10:26:51;;;;;;;5.93;5.13;;;22.90;46.70;;;;;;5103982;28;20441;-80
2022/10/13 10:29:24;;;;;;;7.97;5.30;;;22.90;46.70;;;;;;5108115;28;20468;-80
2022/10/13 10:32:05;;;;;;;7.47;5.27;;;22.90;46.80;;;;;;5109457;28;20438;-78
2022/10/13 10:34:36;;;;;;;9.07;4.80;;;22.90;46.90;;;;;;5109063;28;20441;-79
2022/10/13 10:37:21;;;;;;;6.97;5.43;;;22.90;46.70;;;;;;5109703;28;20440;-80
2022/10/13 10:39:57;;;;;;;13.20;6.27;;;22.90;46.80;;;;;;5107045;28;20441;-80
2022/10/13 10:42:41;;;;;;;6.53;5.03;;;22.90;46.70;;;;;;5109103;28;20443;-82
2022/10/13 10:45:16;;;;;;;10.67;5.30;;;22.80;46.80;;;;;;5109357;28;20419;-81
2022/10/13 10:47:45;;;;;;;9.07;5.27;;;22.80;46.90;;;;;;5107340;28;20451;-81
2022/10/13 10:50:15;;;;;;;6.90;5.10;;;22.80;46.90;;;;;;5109316;28;20465;-81
2022/10/13 10:52:47;;;;;;;7.37;5.50;;;22.80;46.90;;;;;;5107146;28;20461;-81
2022/10/13 10:55:19;;;;;;;8.70;5.30;;;22.80;46.80;;;;;;5106619;28;20551;-80
2022/10/13 10:57:52;;;;;;;6.93;5.43;;;22.90;46.80;;;;;;5104206;28;20448;-80
2022/10/13 11:00:22;;;;;;;7.23;5.40;;;23.00;46.80;;;;;;5103633;28;20407;-78
2022/10/13 11:02:54;;;;;;;5.63;5.03;;;23.00;46.60;;;;;;5104505;28;20460;-78
2022/10/13 11:05:22;;;;;;;5.20;4.70;;;23.00;46.70;;;;;;5103370;28;20424;-79
2022/10/13 11:07:57;;;;;;;11.53;5.70;;;23.00;46.60;;;;;;5105667;28;20445;-77
2022/10/13 11:10:26;;;;;;;7.63;4.50;;;23.00;46.70;;;;;;5104149;28;20478;-79
2022/10/13 11:13:15;;;;;;;6.70;5.00;;;23.00;46.80;;;;;;5104438;28;20457;-80
2022/10/13 11:15:44;;;;;;;5.00;4.27;;;23.10;47.60;;;;;;5106321;28;20415;-81
2022/10/13 11:18:49;;;;;;;7.00;5.00;;;23.30;46.30;;;;;;5107552;28;20532;-79
2022/10/13 11:21:18;;;;;;;7.47;5.13;;;23.30;46.50;;;;;;5107024;28;20481;-81
2022/10/13 11:23:47;;;;;;;5.97;5.17;;;23.30;46.50;;;;;;5109737;28;20445;-80
2022/10/13 11:26:41;;;;;;;9.70;5.03;;;23.30;46.60;;;;;;5110145;28;20486;-80
2022/10/13 11:29:21;;;;;;;6.90;5.10;;;23.40;46.80;;;;;;5105112;28;20447;-81
2022/10/13 11:31:53;;;;;;;5.93;4.60;;;23.70;46.70;;;;;;5107149;28;20456;-80
2022/10/13 11:34:27;;;;;;;6.73;5.30;;;24.10;46.00;;;;;;5109154;28;20407;-82
2022/10/13 11:36:56;;;;;;;10.33;5.17;;;24.10;45.60;;;;;;5106278;28;20444;-80
2022/10/13 11:40:02;;;;;;;6.80;5.00;;;24.20;45.50;;;;;;5105483;28;20421;-81
2022/10/13 11:43:02;;;;;;;7.27;5.00;;;24.10;45.40;;;;;;5104941;28;20494;-80
2022/10/13 11:45:49;;;;;;;5.50;4.87;;;24.00;45.50;;;;;;5104291;28;20445;-79
2022/10/13 11:48:40;;;;;;;5.57;4.83;;;23.90;45.60;;;;;;5103558;28;20407;-82
2022/10/13 11:51:19;;;;;;;8.60;5.10;;;23.90;45.80;;;;;;5105284;28;20520;-80
2022/10/13 11:53:51;;;;;;;6.77;4.83;;;23.90;45.80;;;;;;5105975;28;20440;-78
2022/10/13 11:56:19;;;;;;;7.23;5.30;;;23.90;45.80;;;;;;5105903;28;20436;-81
2022/10/13 11:58:48;;;;;;;7.00;5.30;;;23.90;45.80;;;;;;5103392;28;20403;-79
2022/10/13 12:01:18;;;;;;;5.17;4.60;;;23.90;45.80;;;;;;5103217;28;20465;-80
2022/10/13 12:03:47;;;;;;;8.27;5.40;;;23.80;45.90;;;;;;5104623;28;20423;-80
2022/10/13 12:06:31;;;;;;;5.73;5.00;;;23.80;46.10;;;;;;5105606;28;20403;-82
2022/10/13 12:09:01;;;;;;;8.40;4.37;;;23.80;46.10;;;;;;5106796;28;20468;-80
2022/10/13 12:11:29;;;;;;;4.80;4.40;;;23.80;46.20;;;;;;5105727;28;20464;-78
2022/10/13 12:13:58;;;;;;;6.90;5.17;;;23.80;46.10;;;;;;5106377;28;20445;-83
2022/10/13 12:16:28;;;;;;;5.93;4.70;;;23.80;46.10;;;;;;5107060;28;20449;-79
2022/10/13 12:19:07;;;;;;;5.23;4.70;;;23.80;46.10;;;;;;5104810;28;20421;-80
2022/10/13 12:21:47;;;;;;;5.37;4.87;;;23.80;46.20;;;;;;5102396;28;20475;-80
2022/10/13 12:24:15;;;;;;;6.60;5.40;;;23.80;46.30;;;;;;5101351;28;20444;-80
2022/10/13 12:26:44;;;;;;;7.50;5.37;;;23.70;46.20;;;;;;5101235;28;20452;-80
2022/10/13 12:29:13;;;;;;;6.40;5.50;;;23.70;46.30;;;;;;5103091;28;20447;-80
2022/10/13 12:31:43;;;;;;;7.23;6.00;;;23.60;46.20;;;;;;5111741;28;20437;-81
2022/10/13 12:34:21;;;;;;;11.73;5.97;;;23.70;46.40;;;;;;5110602;28;20436;-81
2022/10/13 12:36:56;;;;;;;7.50;5.83;;;23.70;46.40;;;;;;5109299;28;20447;-82
2022/10/13 12:39:25;;;;;;;6.70;5.83;;;23.80;46.60;;;;;;5109294;28;20419;-83
2022/10/13 12:41:54;;;;;;;6.97;5.60;;;23.90;46.30;;;;;;5109614;28;20467;-81
2022/10/13 12:44:23;;;;;;;10.90;5.80;;;24.00;46.20;;;;;;5108494;28;20432;-81
2022/10/13 12:46:55;;;;;;;7.90;5.87;;;24.10;46.00;;;;;;5108771;28;20444;-82
2022/10/13 12:49:24;;;;;;;7.20;6.23;;;24.10;46.00;;;;;;5110538;28;20439;-84
2022/10/13 12:51:53;;;;;;;8.23;6.20;;;24.30;46.00;;;;;;5111370;28;20492;-82
2022/10/13 12:54:24;;;;;;;6.97;6.10;;;24.60;46.00;;;;;;5108664;28;20431;-82
2022/10/13 12:56:54;;;;;;;6.43;5.60;;;25.20;45.10;;;;;;5109414;28;20511;-81
2022/10/13 12:59:24;;;;;;;8.60;6.60;;;25.10;44.90;;;;;;5108939;28;20464;-81
2022/10/13 13:01:56;;;;;;;7.40;5.90;;;25.00;44.50;;;;;;5108815;28;20468;-82